Time;durP1;ratioP1;P1;durP2;ratioP2;P2;SDS_P1;SDS_P2;PMS_P1;PMS_P2;Temp;Humidity;BMP_temperature;BMP_pressure;BME280_temperature;BME280_humidity;BME280_pressure;Samples;Min_cycle;Max_cycle;Signal;HPM_P1;HPM_P2
2023/08/12 00:00:15;;;;;;;5.65;3.28;;;;;;;19.05;100.00;101066.03;5005420;28;20026;-72
2023/08/12 00:02:45;;;;;;;6.68;3.03;;;;;;;19.07;100.00;101052.31;4998835;28;20033;-72
2023/08/12 00:05:11;;;;;;;5.72;3.13;;;;;;;19.10;100.00;101046.47;4999005;28;20045;-71
2023/08/12 00:07:37;;;;;;;4.28;3.15;;;;;;;19.04;100.00;101041.91;5005064;28;20042;-72
2023/08/12 00:10:04;;;;;;;7.13;3.22;;;;;;;19.09;100.00;101034.00;5005310;28;20034;-71
2023/08/12 00:12:33;;;;;;;8.30;3.58;;;;;;;19.02;100.00;101039.41;5004839;28;20022;-72
2023/08/12 00:14:59;;;;;;;7.90;3.88;;;;;;;19.04;100.00;101031.91;5009741;28;20104;-72
2023/08/12 00:17:25;;;;;;;7.85;3.22;;;;;;;19.07;100.00;101030.66;5004952;28;20022;-72
2023/08/12 00:19:50;;;;;;;3.90;3.00;;;;;;;19.04;100.00;101009.44;4998972;28;20042;-71
2023/08/12 00:22:16;;;;;;;6.13;4.10;;;;;;;19.03;100.00;101030.25;5005097;28;20030;-71
2023/08/12 00:24:41;;;;;;;6.80;3.13;;;;;;;19.00;100.00;101016.31;5023010;28;20092;-71
2023/08/12 00:27:08;;;;;;;3.53;3.13;;;;;;;19.00;100.00;101016.31;5008492;28;20033;-72
2023/08/12 00:29:34;;;;;;;7.80;3.30;;;;;;;18.97;100.00;101018.41;4986130;28;20679;-72
2023/08/12 00:31:59;;;;;;;4.47;2.80;;;;;;;18.96;100.00;101005.94;5002359;28;20026;-72
2023/08/12 00:34:25;;;;;;;10.27;4.70;;;;;;;18.94;100.00;101010.72;5008266;28;20045;-72
2023/08/12 00:36:50;;;;;;;4.30;3.57;;;;;;;18.89;100.00;101020.50;5006757;28;20048;-71
2023/08/12 00:39:15;;;;;;;5.47;3.87;;;;;;;18.84;100.00;101028.41;5002391;28;20038;-71
2023/08/12 00:41:41;;;;;;;6.50;2.80;;;;;;;18.89;100.00;101045.66;5001721;28;20026;-71
2023/08/12 00:44:06;;;;;;;5.97;3.17;;;;;;;18.91;100.00;101027.34;5004516;28;20034;-71
2023/08/12 00:46:35;;;;;;;4.88;3.40;;;;;;;18.83;100.00;101016.78;5001570;28;20105;-72
2023/08/12 00:49:00;;;;;;;5.97;2.90;;;;;;;18.82;100.00;101033.19;5008378;28;20565;-72
2023/08/12 00:51:27;;;;;;;5.47;3.43;;;;;;;18.90;100.00;101014.88;5003405;28;20026;-71
2023/08/12 00:53:52;;;;;;;6.50;3.10;;;;;;;18.76;100.00;101010.50;5006595;28;20303;-72
2023/08/12 00:56:18;;;;;;;5.30;3.37;;;;;;;18.74;100.00;101039.63;5007891;28;20026;-72
2023/08/12 00:58:44;;;;;;;5.57;3.10;;;;;;;18.76;100.00;101014.06;5001608;28;20044;-72
2023/08/12 01:01:11;;;;;;;;;;;;;;;18.70;100.00;101047.31;5003463;28;20058;-71
2023/08/12 01:03:41;;;;;;;6.43;2.78;;;;;;;18.61;100.00;101063.97;5019240;28;19913;-71
2023/08/12 01:06:07;;;;;;;6.65;2.90;;;;;;;18.61;100.00;101058.56;5012245;28;20087;-72
2023/08/12 01:08:33;;;;;;;5.15;3.35;;;;;;;18.64;100.00;101074.38;5002987;28;20142;-72
2023/08/12 01:11:11;;;;;;;4.55;3.20;;;;;;;18.59;100.00;101066.03;5001416;28;20033;-72
2023/08/12 01:13:49;;;;;;;4.53;3.00;;;;;;;18.61;100.00;101074.78;5017480;28;20038;-71
2023/08/12 01:16:17;;;;;;;10.10;3.25;;;;;;;18.55;100.00;101076.44;5017370;28;20034;-71
2023/08/12 01:18:43;;;;;;;4.45;2.97;;;;;;;18.53;100.00;101095.56;5020940;28;20117;-71
2023/08/12 01:21:15;;;;;;;3.78;3.10;;;;;;;18.46;100.00;101094.75;5002746;28;20030;-72
2023/08/12 01:23:43;;;;;;;8.10;3.15;;;;;;;18.47;100.00;101107.22;5016214;28;20034;-72
2023/08/12 01:26:08;;;;;;;5.43;3.40;;;;;;;18.47;100.00;101088.31;5004826;28;20025;-72
2023/08/12 01:28:33;;;;;;;5.47;3.23;;;;;;;18.46;100.00;101097.44;5002342;28;20026;-72
2023/08/12 01:31:15;;;;;;;4.43;2.87;;;;;;;18.49;100.00;101102.44;5002399;28;20018;-72
2023/08/12 01:34:06;;;;;;;10.18;3.97;;;;;;;18.37;100.00;101098.66;5017528;28;20045;-72
2023/08/12 01:36:34;;;;;;;6.22;3.40;;;;;;;18.42;100.00;101109.69;4954498;28;20051;-71
2023/08/12 01:39:00;;;;;;;7.18;4.15;;;;;;;18.41;100.00;101094.53;4953138;28;20412;-71
2023/08/12 01:41:26;;;;;;;3.67;3.15;;;;;;;18.35;100.00;101092.63;4975525;28;20062;-71
2023/08/12 01:43:51;;;;;;;3.70;2.63;;;;;;;18.37;100.00;101097.84;4974356;28;20532;-72
2023/08/12 01:46:17;;;;;;;5.53;3.17;;;;;;;18.35;100.00;101084.53;4968082;28;20585;-72
2023/08/12 01:48:42;;;;;;;3.72;3.05;;;;;;;18.37;100.00;101087.03;4966644;28;20274;-72
2023/08/12 01:51:08;;;;;;;7.77;3.20;;;;;;;18.45;100.00;101103.91;4974086;28;20694;-71
2023/08/12 01:53:33;;;;;;;4.37;3.10;;;;;;;18.39;100.00;101139.84;4957407;28;20069;-71
2023/08/12 01:55:59;;;;;;;4.07;3.20;;;;;;;18.21;100.00;101158.50;4963387;28;20031;-72
2023/08/12 01:58:26;;;;;;;3.23;2.90;;;;;;;18.13;100.00;101170.34;4954520;28;20507;-72
2023/08/12 02:00:52;;;;;;;7.63;3.00;;;;;;;18.18;100.00;101161.63;4981111;28;20309;-71
2023/08/12 02:03:18;;;;;;;4.90;3.40;;;;;;;18.26;100.00;101185.75;4965059;28;20120;-71
2023/08/12 02:05:43;;;;;;;5.97;2.90;;;;;;;18.19;100.00;101214.63;4965894;28;20692;-72
2023/08/12 02:08:09;;;;;;;7.57;4.17;;;;;;;18.09;100.00;101247.41;4962864;28;20030;-72
2023/08/12 02:10:34;;;;;;;5.60;3.30;;;;;;;18.02;100.00;101258.19;4980134;28;20054;-71
2023/08/12 02:12:59;;;;;;;6.07;3.60;;;;;;;18.00;100.00;101233.22;4986183;28;20680;-72
2023/08/12 02:15:25;;;;;;;4.33;3.57;;;;;;;18.05;100.00;101233.50;5000894;28;20038;-72
2023/08/12 02:17:50;;;;;;;5.30;3.37;;;;;;;18.11;100.00;101231.84;5005317;28;20095;-71
2023/08/12 02:20:18;;;;;;;5.13;3.63;;;;;;;18.12;100.00;101238.91;5001238;28;20042;-71
2023/08/12 02:22:43;;;;;;;4.05;2.97;;;;;;;18.06;100.00;101272.97;5000597;28;20022;-71
2023/08/12 02:25:09;;;;;;;7.18;3.60;;;;;;;18.01;100.00;101313.25;4999130;28;20045;-71
2023/08/12 02:27:34;;;;;;;5.13;3.50;;;;;;;17.92;100.00;101290.97;4999311;28;20032;-71
2023/08/12 02:29:59;;;;;;;4.77;3.73;;;;;;;17.82;100.00;101297.75;4999761;28;20036;-72
2023/08/12 02:32:26;;;;;;;4.80;3.40;;;;;;;17.71;100.00;101309.91;4999273;28;20894;-71
2023/08/12 02:34:52;;;;;;;5.30;3.70;;;;;;;17.66;100.00;101294.28;4997377;28;20052;-71
2023/08/12 02:37:17;;;;;;;6.70;4.03;;;;;;;17.52;100.00;101270.91;4997960;28;20033;-72
2023/08/12 02:39:42;;;;;;;6.93;3.47;;;;;;;17.54;100.00;101259.94;4997539;28;20269;-71
2023/08/12 02:42:07;;;;;;;4.60;2.80;;;;;;;17.62;100.00;101249.78;4997376;28;20586;-72
2023/08/12 02:44:33;;;;;;;6.30;3.23;;;;;;;17.59;100.00;101207.00;4997693;28;20404;-72
2023/08/12 02:46:58;;;;;;;5.73;3.30;;;;;;;17.70;100.00;101198.34;4998396;28;20129;-71
2023/08/12 02:49:24;;;;;;;5.73;3.50;;;;;;;17.78;100.00;101199.22;5006302;28;20034;-71
2023/08/12 02:51:49;;;;;;;4.17;3.37;;;;;;;17.75;100.00;101194.19;5004343;28;20066;-71
2023/08/12 02:54:14;;;;;;;5.30;3.00;;;;;;;17.68;100.00;101218.50;5005727;28;20033;-71
2023/08/12 02:56:40;;;;;;;4.57;3.60;;;;;;;17.61;100.00;101242.75;5002513;28;20026;-71
2023/08/12 02:59:05;;;;;;;6.43;3.07;;;;;;;17.55;100.00;101254.31;4998883;28;20084;-71
2023/08/12 03:01:31;;;;;;;4.10;3.70;;;;;;;17.37;100.00;101249.41;5001721;28;20812;-71
2023/08/12 03:03:56;;;;;;;12.07;3.70;;;;;;;17.34;100.00;101275.94;4998080;28;20034;-71
2023/08/12 03:06:21;;;;;;;5.13;3.17;;;;;;;17.32;100.00;101278.00;4999905;28;20037;-71
2023/08/12 03:08:47;;;;;;;6.00;3.23;;;;;;;17.30;100.00;101268.25;4998436;28;20053;-71
2023/08/12 03:11:13;;;;;;;5.00;3.45;;;;;;;17.37;100.00;101251.25;5000066;28;20022;-71
2023/08/12 03:13:39;;;;;;;4.43;3.70;;;;;;;17.33;100.00;101231.94;4999514;28;20038;-72
2023/08/12 03:16:10;;;;;;;3.80;3.50;;;;;;;17.23;100.00;101221.47;4998280;28;20395;-71
2023/08/12 03:18:36;;;;;;;5.10;3.80;;;;;;;17.22;100.00;101238.69;4998218;28;20125;-71
2023/08/12 03:21:05;;;;;;;9.50;4.82;;;;;;;17.25;100.00;101256.34;4998308;28;20114;-72
2023/08/12 03:23:31;;;;;;;5.97;4.03;;;;;;;17.28;100.00;101246.00;4997845;28;20048;-72
2023/08/12 03:25:57;;;;;;;4.82;3.30;;;;;;;17.30;100.00;101235.00;4999078;28;20052;-71
2023/08/12 03:28:23;;;;;;;5.70;3.50;;;;;;;17.23;100.00;101234.97;4997727;28;20041;-71
2023/08/12 03:30:52;;;;;;;5.57;4.32;;;;;;;17.17;100.00;101243.00;5001030;28;20068;-71
2023/08/12 03:33:19;;;;;;;6.40;4.20;;;;;;;17.14;100.00;101255.03;5014046;28;20037;-71
2023/08/12 03:35:49;;;;;;;5.45;3.70;;;;;;;17.10;100.00;101267.22;5005038;28;20021;-71
2023/08/12 03:38:15;;;;;;;8.45;4.20;;;;;;;17.07;100.00;101256.81;4997694;28;20096;-71
2023/08/12 03:40:41;;;;;;;6.18;4.10;;;;;;;17.04;100.00;101259.88;4997414;28;20684;-71
2023/08/12 03:43:09;;;;;;;4.82;3.72;;;;;;;17.02;100.00;101264.63;4997590;28;20636;-72
2023/08/12 03:45:44;;;;;;;4.30;3.90;;;;;;;17.04;100.00;101258.06;4997384;28;20112;-71
2023/08/12 03:48:11;;;;;;;5.35;3.33;;;;;;;17.07;100.00;101256.81;4998941;28;20038;-71
2023/08/12 03:50:38;;;;;;;6.20;4.07;;;;;;;17.07;100.00;101264.91;4998815;28;20026;-71
2023/08/12 03:53:04;;;;;;;6.25;4.05;;;;;;;17.02;100.00;101243.06;4980991;28;20508;-71
2023/08/12 03:55:31;;;;;;;7.65;4.05;;;;;;;17.05;100.00;101248.91;4996708;28;20030;-71
2023/08/12 03:57:57;;;;;;;4.90;4.10;;;;;;;17.04;100.00;101252.66;5005419;28;20056;-72
2023/08/12 04:00:23;;;;;;;5.78;3.92;;;;;;;17.06;100.00;101263.22;5017939;28;20018;-71
2023/08/12 04:02:52;;;;;;;7.65;3.58;;;;;;;17.09;100.00;101262.84;4994646;28;20037;-71
2023/08/12 04:05:18;;;;;;;4.65;4.13;;;;;;;17.08;100.00;101264.72;4990689;28;20025;-71
2023/08/12 04:07:43;;;;;;;4.17;3.77;;;;;;;17.04;100.00;101258.06;5000600;28;20115;-71
2023/08/12 04:10:09;;;;;;;14.40;4.73;;;;;;;17.04;100.00;101259.88;4991226;28;20515;-71
2023/08/12 04:12:35;;;;;;;6.20;4.00;;;;;;;17.00;100.00;101255.94;5007284;28;20120;-71
2023/08/12 04:15:03;;;;;;;6.03;4.20;;;;;;;16.97;100.00;101243.63;5008337;28;20049;-72
2023/08/12 04:17:29;;;;;;;5.28;4.10;;;;;;;16.95;100.00;101243.03;4992295;28;20381;-71
2023/08/12 04:19:54;;;;;;;5.17;4.03;;;;;;;16.89;100.00;101233.00;4999745;28;20033;-71
2023/08/12 04:22:19;;;;;;;6.67;4.00;;;;;;;16.98;100.00;101247.19;4997895;28;20546;-72
2023/08/12 04:24:45;;;;;;;4.53;3.90;;;;;;;16.99;100.00;101244.28;4990657;28;20438;-71
2023/08/12 04:27:10;;;;;;;4.77;4.20;;;;;;;17.02;100.00;101245.75;4975415;28;20038;-71
2023/08/12 04:29:35;;;;;;;8.17;5.57;;;;;;;17.01;100.00;101250.31;4991334;28;20034;-72
2023/08/12 04:32:01;;;;;;;9.43;4.95;;;;;;;17.05;100.00;101254.31;5006802;28;20036;-71
2023/08/12 04:34:27;;;;;;;6.20;4.57;;;;;;;17.07;100.00;101243.34;4995388;28;20026;-71
2023/08/12 04:36:53;;;;;;;5.78;4.88;;;;;;;17.06;100.00;101228.16;5022554;28;20038;-71
2023/08/12 04:39:18;;;;;;;7.80;5.00;;;;;;;17.05;100.00;101221.13;4997851;28;20081;-72
2023/08/12 04:41:43;;;;;;;8.33;4.87;;;;;;;17.03;100.00;101220.47;4990409;28;20030;-71
2023/08/12 04:44:09;;;;;;;5.60;5.00;;;;;;;17.05;100.00;101216.53;4995473;28;20053;-71
2023/08/12 04:46:35;;;;;;;8.30;4.40;;;;;;;17.10;100.00;101224.06;4990664;28;20124;-71
2023/08/12 04:49:00;;;;;;;6.30;4.63;;;;;;;17.13;100.00;101220.97;4997997;28;20569;-71
2023/08/12 04:51:26;;;;;;;6.53;4.93;;;;;;;17.10;100.00;101202.47;4993461;28;20288;-71
2023/08/12 04:53:52;;;;;;;9.30;4.50;;;;;;;17.07;100.00;101192.09;4999235;28;20102;-72
2023/08/12 04:56:18;;;;;;;5.75;3.90;;;;;;;17.12;100.00;101192.31;4983139;28;20512;-71
2023/08/12 04:58:44;;;;;;;6.22;4.45;;;;;;;17.26;100.00;101196.81;4999605;28;20036;-71
2023/08/12 05:01:10;;;;;;;6.65;4.40;;;;;;;17.36;100.00;101198.31;4999434;28;20116;-72
2023/08/12 05:03:37;;;;;;;7.50;4.70;;;;;;;17.43;100.00;101188.41;4999295;28;20499;-72
2023/08/12 05:06:03;;;;;;;7.80;5.13;;;;;;;17.45;100.00;101191.75;5004366;28;20034;-72
2023/08/12 05:08:29;;;;;;;;;;;;;;;17.48;100.00;101183.25;5001995;28;20026;-71
2023/08/12 05:10:55;;;;;;;9.05;4.55;;;;;;;17.51;100.00;101178.31;5002265;28;20351;-72
2023/08/12 05:13:20;;;;;;;8.13;5.83;;;;;;;17.52;100.00;101171.03;5000924;28;20093;-72
2023/08/12 05:15:47;;;;;;;5.83;5.07;;;;;;;17.63;100.00;101183.13;5000563;28;20036;-72
2023/08/12 05:18:14;;;;;;;8.57;5.10;;;;;;;17.66;100.00;101183.56;5003071;28;20092;-72
2023/08/12 05:20:40;;;;;;;;;;;;;;;17.75;100.00;101178.00;5001010;28;20134;-72
2023/08/12 05:23:06;;;;;;;6.40;4.57;;;;;;;17.64;100.00;101174.84;5011350;28;19944;-71
2023/08/12 05:25:31;;;;;;;5.53;4.40;;;;;;;17.60;100.00;101160.06;5000085;28;20496;-70
2023/08/12 05:27:56;;;;;;;9.00;4.93;;;;;;;17.80;100.00;101171.00;5003015;28;20034;-71
2023/08/12 05:30:22;;;;;;;6.07;3.77;;;;;;;17.92;100.00;101157.78;4999114;28;20042;-71
2023/08/12 05:32:47;;;;;;;4.20;3.80;;;;;;;18.08;100.00;101149.31;4994169;28;20026;-71
2023/08/12 05:35:12;;;;;;;5.50;3.83;;;;;;;18.18;100.00;101131.91;5007012;28;20617;-72
2023/08/12 05:37:38;;;;;;;4.37;3.70;;;;;;;18.20;100.00;101106.34;5007426;28;20030;-72
2023/08/12 05:40:07;;;;;;;7.13;3.80;;;;;;;18.33;100.00;101090.16;5007144;28;20513;-72
2023/08/12 05:42:33;;;;;;;5.43;3.42;;;;;;;18.63;100.00;101080.81;4997830;28;20029;-71
2023/08/12 05:44:59;;;;;;;5.57;3.42;;;;;;;19.20;100.00;101036.06;5005609;28;20072;-71
2023/08/12 05:47:24;;;;;;;6.33;3.40;;;;;;;19.64;100.00;100993.78;5005770;28;20083;-72
2023/08/12 05:49:49;;;;;;;4.47;3.00;;;;;;;19.95;100.00;100929.88;5003110;28;20034;-72
2023/08/12 05:52:15;;;;;;;4.73;3.17;;;;;;;19.69;100.00;100860.44;5005224;28;20584;-73
2023/08/12 05:54:40;;;;;;;11.87;3.07;;;;;;;19.61;100.00;100864.25;4996249;28;20029;-72
2023/08/12 05:57:05;;;;;;;3.73;3.33;;;;;;;18.88;100.00;100815.97;5004942;28;20029;-72
2023/08/12 05:59:30;;;;;;;6.07;3.17;;;;;;;18.66;100.00;100886.53;5005456;28;20048;-72
2023/08/12 06:01:56;;;;;;;4.00;3.43;;;;;;;18.55;100.00;100915.06;4997328;28;20061;-72
2023/08/12 06:04:21;;;;;;;7.60;3.27;;;;;;;18.62;100.00;100936.69;5006658;28;20046;-72
2023/08/12 06:06:46;;;;;;;6.20;2.83;;;;;;;18.80;100.00;100964.94;5005979;28;20044;-72
2023/08/12 06:09:12;;;;;;;4.73;3.23;;;;;;;18.91;100.00;100980.53;5006996;28;20060;-72
2023/08/12 06:11:37;;;;;;;10.47;3.90;;;;;;;18.92;100.00;100958.69;4986757;28;20473;-72
2023/08/12 06:14:06;;;;;;;6.90;3.57;;;;;;;18.73;100.00;100997.38;4997493;28;20512;-72
2023/08/12 06:16:31;;;;;;;5.28;3.42;;;;;;;18.73;100.00;101006.34;5001199;28;20084;-72
2023/08/12 06:18:57;;;;;;;5.60;3.63;;;;;;;18.75;100.00;101050.25;5005260;28;20478;-72
2023/08/12 06:21:22;;;;;;;8.23;3.40;;;;;;;18.91;100.00;101059.00;5006498;28;20105;-72
2023/08/12 06:23:47;;;;;;;6.00;3.43;;;;;;;18.68;100.00;101013.41;5007053;28;20029;-72
2023/08/12 06:26:13;;;;;;;5.17;3.80;;;;;;;18.63;100.00;101019.44;5007415;28;20440;-72
2023/08/12 06:28:38;;;;;;;4.80;3.97;;;;;;;18.85;100.00;101049.03;5000820;28;20389;-72
2023/08/12 06:31:03;;;;;;;7.27;3.43;;;;;;;19.03;100.00;101072.72;5006131;28;20033;-72
2023/08/12 06:33:29;;;;;;;4.07;3.60;;;;;;;19.13;100.00;101062.31;4997475;28;20041;-72
2023/08/12 06:35:54;;;;;;;8.77;3.70;;;;;;;19.19;100.00;101077.69;4999422;28;20105;-72
2023/08/12 06:38:19;;;;;;;5.23;3.87;;;;;;;18.95;100.00;101035.91;4991409;28;20773;-72
2023/08/12 06:40:46;;;;;;;5.73;4.03;;;;;;;18.91;100.00;101038.16;4993373;28;20350;-72
2023/08/12 06:43:11;;;;;;;4.15;3.30;;;;;;;19.01;100.00;101075.66;5006081;28;20042;-72
2023/08/12 06:45:37;;;;;;;5.47;3.60;;;;;;;19.01;100.00;101110.81;4996428;28;20044;-72
2023/08/12 06:48:02;;;;;;;8.37;4.97;;;;;;;19.11;100.00;101124.75;4991846;28;20037;-72
2023/08/12 06:50:28;;;;;;;5.20;3.60;;;;;;;19.18;100.00;101151.81;5005865;28;20284;-72
2023/08/12 06:52:53;;;;;;;4.30;3.90;;;;;;;19.18;100.00;101155.34;5005636;28;20045;-72
2023/08/12 06:55:18;;;;;;;7.90;4.03;;;;;;;19.18;100.00;101178.88;5004300;28;20033;-72
2023/08/12 06:57:44;;;;;;;8.10;3.97;;;;;;;19.19;100.00;101170.53;5005523;28;20053;-72
2023/08/12 07:00:10;;;;;;;4.30;3.40;;;;;;;19.10;100.00;101182.59;4992411;28;20033;-72
2023/08/12 07:02:35;;;;;;;4.63;3.90;;;;;;;18.96;100.00;101184.50;5005462;28;20041;-72
2023/08/12 07:05:01;;;;;;;7.77;4.03;;;;;;;18.93;100.00;101198.41;5005169;28;20030;-72
2023/08/12 07:07:26;;;;;;;6.10;4.15;;;;;;;18.98;100.00;101212.16;4989343;28;20068;-71
2023/08/12 07:09:52;;;;;;;4.40;3.90;;;;;;;18.79;100.00;101179.69;4996525;28;20064;-71
2023/08/12 07:12:17;;;;;;;10.03;4.00;;;;;;;18.81;100.00;101178.44;4996358;28;20034;-71
2023/08/12 07:14:42;;;;;;;4.87;3.70;;;;;;;18.85;100.00;101176.16;4996190;28;20026;-71
2023/08/12 07:17:08;;;;;;;6.77;3.83;;;;;;;18.86;100.00;101165.13;5005305;28;20091;-72
2023/08/12 07:19:33;;;;;;;5.47;4.27;;;;;;;18.96;100.00;101157.44;5005319;28;20069;-71
2023/08/12 07:21:58;;;;;;;5.97;4.40;;;;;;;18.95;100.00;101158.47;5000024;28;20058;-71
2023/08/12 07:24:24;;;;;;;5.27;4.27;;;;;;;19.05;100.00;101187.81;4992021;28;20083;-71
2023/08/12 07:26:49;;;;;;;7.37;4.60;;;;;;;18.92;100.00;101156.19;5005023;28;20489;-72
2023/08/12 07:29:14;;;;;;;8.30;4.23;;;;;;;19.00;100.00;101175.97;5012218;28;20413;-71
2023/08/12 07:31:40;;;;;;;5.93;3.83;;;;;;;19.07;100.00;101199.25;5005247;28;20058;-71
2023/08/12 07:34:05;;;;;;;6.37;4.37;;;;;;;19.13;100.00;101209.25;5004212;28;20387;-72
2023/08/12 07:36:32;;;;;;;6.70;4.50;;;;;;;19.06;100.00;101199.47;4992351;28;20511;-72
2023/08/12 07:38:58;;;;;;;6.78;5.13;;;;;;;18.83;100.00;101181.78;4997557;28;20109;-72
2023/08/12 07:41:27;;;;;;;7.87;4.93;;;;;;;18.90;100.00;101193.44;5005185;28;20029;-72
2023/08/12 07:43:52;;;;;;;5.97;5.13;;;;;;;18.86;100.00;101178.66;5005873;28;20488;-73
2023/08/12 07:46:18;;;;;;;7.20;5.03;;;;;;;18.65;100.00;101147.16;5004541;28;20089;-72
2023/08/12 07:48:43;;;;;;;10.93;5.53;;;;;;;18.63;100.00;101153.81;5005649;28;20072;-73
2023/08/12 07:51:09;;;;;;;5.83;4.40;;;;;;;18.70;100.00;101151.97;4998339;28;20301;-73
2023/08/12 07:53:34;;;;;;;7.63;5.05;;;;;;;18.69;100.00;101155.72;5006411;28;20068;-73
2023/08/12 07:56:00;;;;;;;13.40;5.55;;;;;;;18.62;100.00;101152.19;4995105;28;20045;-73
2023/08/12 07:58:25;;;;;;;5.60;5.03;;;;;;;18.80;100.00;101171.38;5005274;28;20089;-73
2023/08/12 08:00:54;;;;;;;6.18;5.55;;;;;;;18.97;100.00;101183.44;5004969;28;20038;-74
2023/08/12 08:03:19;;;;;;;8.82;5.53;;;;;;;19.01;100.00;101177.59;5004956;28;20065;-73
2023/08/12 08:05:46;;;;;;;6.43;5.65;;;;;;;19.01;100.00;101188.44;4994459;28;20057;-73
2023/08/12 08:08:12;;;;;;;8.18;5.50;;;;;;;19.04;100.00;101182.63;4978919;28;20038;-73
2023/08/12 08:10:38;;;;;;;7.70;6.72;;;;;;;19.06;100.00;101192.19;4987631;28;20041;-73
2023/08/12 08:13:03;;;;;;;9.27;5.80;;;;;;;19.00;100.00;101186.78;5004665;28;20061;-73
2023/08/12 08:15:29;;;;;;;12.07;7.17;;;;;;;19.11;100.00;101202.41;4994815;28;20273;-73
2023/08/12 08:17:54;;;;;;;9.80;6.50;;;;;;;19.11;100.00;101195.09;4999478;28;20750;-73
2023/08/12 08:20:19;;;;;;;9.53;6.30;;;;;;;19.11;100.00;101178.03;5002670;28;20061;-73
2023/08/12 08:22:45;;;;;;;7.80;5.27;;;;;;;19.24;100.00;101169.06;5003195;28;20482;-73
2023/08/12 08:25:10;;;;;;;6.90;5.47;;;;;;;19.26;100.00;101154.28;5002883;28;20584;-73
2023/08/12 08:27:36;;;;;;;11.40;6.80;;;;;;;19.26;100.00;101157.00;5004903;28;20065;-73
2023/08/12 08:30:01;;;;;;;7.63;6.23;;;;;;;19.29;100.00;101143.06;4998687;28;20132;-73
2023/08/12 08:32:26;;;;;;;7.00;6.20;;;;;;;19.36;100.00;101143.03;5000699;28;20022;-73
2023/08/12 08:34:52;;;;;;;7.60;5.67;;;;;;;19.49;100.00;101131.34;4992023;28;20288;-73
2023/08/12 08:37:17;;;;;;;8.30;5.80;;;;;;;19.56;100.00;101116.75;4991703;28;20416;-73
2023/08/12 08:39:42;;;;;;;6.77;6.00;;;;;;;19.60;100.00;101136.13;5003087;28;20072;-73
2023/08/12 08:42:11;;;;;;;7.70;6.20;;;;;;;19.85;100.00;101140.84;4992557;28;20052;-73
2023/08/12 08:44:41;;;;;;;10.15;6.55;;;;;;;19.82;100.00;101115.00;4994083;28;20037;-73
2023/08/12 08:47:08;;;;;;;9.25;6.00;;;;;;;19.84;100.00;101093.13;4999556;28;20037;-73
2023/08/12 08:49:35;;;;;;;6.80;5.28;;;;;;;20.12;100.00;101071.09;4992631;28;20387;-74
2023/08/12 08:52:01;;;;;;;9.43;5.78;;;;;;;20.06;100.00;101036.72;4997935;28;20502;-72
2023/08/12 08:54:28;;;;;;;6.07;5.47;;;;;;;20.36;100.00;101039.66;4990393;28;20095;-74
2023/08/12 08:56:53;;;;;;;;;;;;;;;20.56;100.00;101058.53;5003967;28;20057;-74
2023/08/12 08:59:21;;;;;;;11.05;6.13;;;;;;;20.96;100.00;101067.13;5008110;28;20018;-73
2023/08/12 09:01:47;;;;;;;6.75;5.32;;;;;;;20.74;100.00;100993.44;5007850;28;20073;-73
2023/08/12 09:04:15;;;;;;;6.72;5.45;;;;;;;20.89;100.00;100946.97;5004121;28;20032;-74
2023/08/12 09:06:41;;;;;;;6.80;5.10;;;;;;;20.99;100.00;100958.13;5021402;28;20029;-73
2023/08/12 09:09:12;;;;;;;5.18;4.68;;;;;;;21.35;100.00;100923.00;5001155;28;20026;-73
2023/08/12 09:11:39;;;;;;;10.52;5.18;;;;;;;21.76;100.00;100927.69;4973996;28;20528;-74
2023/08/12 09:14:05;;;;;;;6.55;5.65;;;;;;;22.11;100.00;100897.84;4997336;28;20045;-74
2023/08/12 09:16:31;;;;;;;9.90;4.57;;;;;;;22.04;100.00;100817.47;5007370;28;20038;-74
2023/08/12 09:18:56;;;;;;;7.50;5.63;;;;;;;22.00;100.00;100753.75;5007394;28;20476;-74
2023/08/12 09:21:22;;;;;;;13.10;5.57;;;;;;;22.31;100.00;100786.03;4991482;28;20539;-74
2023/08/12 09:23:48;;;;;;;7.75;5.35;;;;;;;21.89;100.00;100778.00;4996980;28;20257;-73
2023/08/12 09:26:18;;;;;;;7.10;5.65;;;;;;;21.27;100.00;100812.84;4990584;28;20034;-74
2023/08/12 09:28:44;;;;;;;8.35;4.95;;;;;;;21.70;100.00;100925.88;5006635;28;20048;-74
2023/08/12 09:31:26;;;;;;;6.15;5.35;;;;;;;22.29;100.00;100872.47;5007082;28;20094;-73
2023/08/12 09:33:52;;;;;;;7.65;6.15;;;;;;;22.73;100.00;100864.72;5004216;28;20112;-74
2023/08/12 09:36:20;;;;;;;12.68;4.97;;;;;;;22.88;100.00;100834.25;5006930;28;20392;-74
2023/08/12 09:38:46;;;;;;;9.77;5.88;;;;;;;23.27;100.00;100809.97;5007730;28;20495;-74
2023/08/12 09:41:11;;;;;;;9.10;6.10;;;;;;;22.99;100.00;100677.38;5007166;28;20018;-74
2023/08/12 09:43:41;;;;;;;7.47;5.45;;;;;;;23.72;100.00;100778.28;5006799;28;20747;-74
2023/08/12 09:46:10;;;;;;;8.43;4.53;;;;;;;24.39;100.00;100755.50;4996288;28;20045;-73
2023/08/12 09:48:35;;;;;;;8.98;5.50;;;;;;;24.41;100.00;100625.91;4993351;28;20025;-74
2023/08/12 09:51:00;;;;;;;8.10;5.53;;;;;;;24.26;100.00;100603.13;5006831;28;20548;-74
2023/08/12 09:53:26;;;;;;;5.60;4.57;;;;;;;24.12;100.00;100630.81;5007334;28;20037;-74
2023/08/12 09:55:52;;;;;;;5.57;4.93;;;;;;;24.04;100.00;100590.34;5005727;28;20038;-74
2023/08/12 09:58:22;;;;;;;10.32;5.85;;;;;;;23.52;100.00;100648.81;5006663;28;20094;-73
2023/08/12 10:00:48;;;;;;;7.22;4.93;;;;;;;22.95;100.00;100687.94;5006642;28;20030;-73
2023/08/12 10:03:17;;;;;;;10.98;7.65;;;;;;;21.96;100.00;100731.69;4992649;28;20456;-73
2023/08/12 10:05:43;;;;;;;8.10;6.47;;;;;;;22.12;100.00;100917.69;4988747;28;20041;-73
2023/08/12 10:08:10;;;;;;;7.90;6.05;;;;;;;22.14;100.00;100908.22;4996069;28;20026;-74
2023/08/12 10:10:36;;;;;;;6.80;6.10;;;;;;;22.33;100.00;100903.53;5006611;28;20033;-73
2023/08/12 10:13:07;;;;;;;14.40;5.80;;;;;;;22.67;100.00;100898.31;5000156;28;20022;-73
2023/08/12 10:15:33;;;;;;;7.22;6.28;;;;;;;22.74;100.00;100839.16;5011775;28;20049;-74
2023/08/12 10:17:59;;;;;;;8.10;6.43;;;;;;;22.07;100.00;100893.09;5005039;28;20018;-73
2023/08/12 10:20:25;;;;;;;7.03;5.72;;;;;;;22.28;100.00;100974.13;4992425;28;20105;-73
2023/08/12 10:22:51;;;;;;;;;;;;;;;22.82;100.00;100948.69;5002296;28;20595;-74
2023/08/12 10:25:18;;;;;;;6.90;5.10;;;;;;;23.08;100.00;100871.13;5006097;28;19998;-73
2023/08/12 10:27:44;;;;;;;9.57;5.88;;;;;;;22.73;100.00;100901.97;4992042;28;20468;-74
2023/08/12 10:30:10;;;;;;;5.78;4.72;;;;;;;22.82;100.00;100981.38;5006229;28;20205;-73
2023/08/12 10:32:35;;;;;;;11.32;5.90;;;;;;;23.07;100.00;100913.88;4992357;28;20231;-73
2023/08/12 10:35:02;;;;;;;8.18;6.55;;;;;;;22.90;100.00;100837.56;5006054;28;20045;-73
2023/08/12 10:37:33;;;;;;;11.00;6.45;;;;;;;23.09;100.00;100823.78;4989976;28;20022;-74
2023/08/12 10:39:58;;;;;;;8.38;6.00;;;;;;;23.23;100.00;100836.03;5006118;28;20030;-74
2023/08/12 10:42:59;;;;;;;7.10;5.37;;;;;;;23.30;100.00;100776.78;5005952;28;20044;-73
2023/08/12 10:45:42;;;;;;;8.82;5.28;;;;;;;23.51;100.00;100818.81;4936252;28;20339;-73
2023/08/12 10:48:07;;;;;;;9.35;6.00;;;;;;;23.78;100.00;100736.41;4950562;28;20155;-73
2023/08/12 10:50:34;;;;;;;11.25;6.05;;;;;;;23.71;100.00;100659.41;4948969;28;20529;-74
2023/08/12 10:53:24;;;;;;;8.88;4.68;;;;;;;24.15;100.00;100634.91;4949767;28;20043;-74
2023/08/12 10:55:50;;;;;;;9.70;5.63;;;;;;;24.39;100.00;100592.59;4941406;28;20034;-73
2023/08/12 10:58:30;;;;;;;8.43;5.93;;;;;;;24.35;100.00;100509.66;4928525;29;20509;-73
2023/08/12 11:00:57;;;;;;;8.90;5.95;;;;;;;24.41;100.00;100456.75;4919772;28;20622;-74
2023/08/12 11:03:23;;;;;;;6.00;4.63;;;;;;;24.62;100.00;100435.91;4938974;28;20053;-74
2023/08/12 11:05:48;;;;;;;14.02;7.03;;;;;;;24.33;100.00;100375.41;4947658;28;20720;-74
2023/08/12 11:08:14;;;;;;;10.32;5.93;;;;;;;23.65;100.00;100445.97;4931836;28;20042;-73
2023/08/12 11:10:40;;;;;;;8.07;4.77;;;;;;;23.63;100.00;100565.31;4933013;28;20034;-74
2023/08/12 11:13:06;;;;;;;7.85;5.30;;;;;;;23.43;100.00;100666.66;4947413;28;20802;-74